sensor_id;sensor_type;location;lat;lon;timestamp;P1;durP1;ratioP1;P2;durP2;ratioP2
3201;SDS011;34843;48.744;8.958;2022-08-03T00:01:45;6.43;;;4.10;;
3201;SDS011;34843;48.744;8.958;2022-08-03T00:04:11;4.10;;;3.80;;
3201;SDS011;34843;48.744;8.958;2022-08-03T00:06:37;4.53;;;4.10;;
3201;SDS011;34843;48.744;8.958;2022-08-03T00:09:03;4.30;;;3.90;;
3201;SDS011;34843;48.744;8.958;2022-08-03T00:11:32;4.63;;;3.57;;
3201;SDS011;34843;48.744;8.958;2022-08-03T00:14:04;3.07;;;2.87;;
3201;SDS011;34843;48.744;8.958;2022-08-03T00:16:33;5.70;;;3.83;;
3201;SDS011;34843;48.744;8.958;2022-08-03T00:19:02;3.90;;;3.50;;
3201;SDS011;34843;48.744;8.958;2022-08-03T00:21:29;3.50;;;3.20;;
3201;SDS011;34843;48.744;8.958;2022-08-03T00:23:54;3.90;;;3.60;;
3201;SDS011;34843;48.744;8.958;2022-08-03T00:26:31;3.40;;;3.10;;
3201;SDS011;34843;48.744;8.958;2022-08-03T00:28:57;4.10;;;3.70;;
3201;SDS011;34843;48.744;8.958;2022-08-03T00:31:23;4.20;;;3.80;;
3201;SDS011;34843;48.744;8.958;2022-08-03T00:33:48;3.50;;;3.20;;
3201;SDS011;34843;48.744;8.958;2022-08-03T00:36:14;3.80;;;3.50;;
3201;SDS011;34843;48.744;8.958;2022-08-03T00:38:39;5.00;;;3.17;;
3201;SDS011;34843;48.744;8.958;2022-08-03T00:41:05;4.20;;;3.87;;
3201;SDS011;34843;48.744;8.958;2022-08-03T00:43:31;3.80;;;3.50;;
3201;SDS011;34843;48.744;8.958;2022-08-03T00:45:56;4.10;;;3.80;;
3201;SDS011;34843;48.744;8.958;2022-08-03T00:48:22;9.20;;;4.37;;
3201;SDS011;34843;48.744;8.958;2022-08-03T00:50:49;5.07;;;4.10;;
3201;SDS011;34843;48.744;8.958;2022-08-03T00:53:14;4.27;;;3.97;;
3201;SDS011;34843;48.744;8.958;2022-08-03T00:55:40;3.90;;;3.40;;
3201;SDS011;34843;48.744;8.958;2022-08-03T00:58:06;3.30;;;2.80;;
3201;SDS011;34843;48.744;8.958;2022-08-03T01:00:35;3.90;;;3.30;;
3201;SDS011;34843;48.744;8.958;2022-08-03T01:03:05;3.70;;;3.40;;
3201;SDS011;34843;48.744;8.958;2022-08-03T01:05:44;4.07;;;3.23;;
3201;SDS011;34843;48.744;8.958;2022-08-03T01:14:02;4.63;;;4.23;;
3201;SDS011;34843;48.744;8.958;2022-08-03T01:16:43;4.47;;;4.17;;
3201;SDS011;34843;48.744;8.958;2022-08-03T01:30:42;8.80;;;3.93;;
3201;SDS011;34843;48.744;8.958;2022-08-03T01:33:14;3.37;;;3.17;;
3201;SDS011;34843;48.744;8.958;2022-08-03T01:35:56;4.43;;;3.53;;
3201;SDS011;34843;48.744;8.958;2022-08-03T01:38:25;4.00;;;3.70;;
3201;SDS011;34843;48.744;8.958;2022-08-03T01:40:53;5.40;;;3.77;;
3201;SDS011;34843;48.744;8.958;2022-08-03T01:43:22;3.83;;;3.63;;
3201;SDS011;34843;48.744;8.958;2022-08-03T01:45:54;4.30;;;3.87;;
3201;SDS011;34843;48.744;8.958;2022-08-03T01:48:21;5.97;;;3.47;;
3201;SDS011;34843;48.744;8.958;2022-08-03T01:50:47;4.43;;;4.03;;
3201;SDS011;34843;48.744;8.958;2022-08-03T01:53:14;3.90;;;3.60;;
3201;SDS011;34843;48.744;8.958;2022-08-03T01:55:42;4.43;;;3.90;;
3201;SDS011;34843;48.744;8.958;2022-08-03T01:58:10;4.10;;;3.53;;
3201;SDS011;34843;48.744;8.958;2022-08-03T02:00:38;4.17;;;3.77;;
3201;SDS011;34843;48.744;8.958;2022-08-03T02:03:05;3.67;;;3.37;;
3201;SDS011;34843;48.744;8.958;2022-08-03T02:05:32;5.93;;;3.93;;
3201;SDS011;34843;48.744;8.958;2022-08-03T02:07:59;4.23;;;3.80;;
3201;SDS011;34843;48.744;8.958;2022-08-03T02:10:27;4.27;;;3.90;;
3201;SDS011;34843;48.744;8.958;2022-08-03T02:12:54;4.30;;;3.90;;
3201;SDS011;34843;48.744;8.958;2022-08-03T02:15:23;3.67;;;3.40;;
3201;SDS011;34843;48.744;8.958;2022-08-03T02:17:49;3.87;;;3.57;;
3201;SDS011;34843;48.744;8.958;2022-08-03T02:20:17;4.33;;;4.03;;
3201;SDS011;34843;48.744;8.958;2022-08-03T02:22:43;6.40;;;3.70;;
3201;SDS011;34843;48.744;8.958;2022-08-03T02:25:11;4.93;;;4.23;;
3201;SDS011;34843;48.744;8.958;2022-08-03T02:27:38;4.03;;;3.73;;
3201;SDS011;34843;48.744;8.958;2022-08-03T02:30:08;4.07;;;3.73;;
3201;SDS011;34843;48.744;8.958;2022-08-03T02:32:38;4.17;;;3.73;;
3201;SDS011;34843;48.744;8.958;2022-08-03T02:35:08;8.10;;;4.13;;
3201;SDS011;34843;48.744;8.958;2022-08-03T02:37:38;4.40;;;4.00;;
3201;SDS011;34843;48.744;8.958;2022-08-03T02:40:17;4.57;;;4.17;;
3201;SDS011;34843;48.744;8.958;2022-08-03T02:42:44;4.27;;;3.87;;
3201;SDS011;34843;48.744;8.958;2022-08-03T02:45:13;4.13;;;3.83;;
3201;SDS011;34843;48.744;8.958;2022-08-03T02:47:40;3.83;;;3.53;;
3201;SDS011;34843;48.744;8.958;2022-08-03T02:50:10;4.10;;;3.70;;
3201;SDS011;34843;48.744;8.958;2022-08-03T02:52:40;5.07;;;4.60;;
3201;SDS011;34843;48.744;8.958;2022-08-03T02:55:08;4.53;;;4.13;;
3201;SDS011;34843;48.744;8.958;2022-08-03T02:57:35;4.80;;;3.83;;
3201;SDS011;34843;48.744;8.958;2022-08-03T03:00:02;10.57;;;4.90;;
3201;SDS011;34843;48.744;8.958;2022-08-03T03:02:29;5.10;;;4.57;;
3201;SDS011;34843;48.744;8.958;2022-08-03T03:04:55;5.00;;;4.50;;
3201;SDS011;34843;48.744;8.958;2022-08-03T03:07:23;4.97;;;3.47;;
3201;SDS011;34843;48.744;8.958;2022-08-03T03:09:50;4.77;;;4.37;;
3201;SDS011;34843;48.744;8.958;2022-08-03T03:12:16;5.53;;;4.10;;
3201;SDS011;34843;48.744;8.958;2022-08-03T03:14:43;3.90;;;3.50;;
3201;SDS011;34843;48.744;8.958;2022-08-03T03:17:09;12.10;;;4.70;;
3201;SDS011;34843;48.744;8.958;2022-08-03T03:19:35;5.10;;;4.60;;
3201;SDS011;34843;48.744;8.958;2022-08-03T03:22:04;5.43;;;4.80;;
3201;SDS011;34843;48.744;8.958;2022-08-03T03:24:32;5.17;;;4.67;;
3201;SDS011;34843;48.744;8.958;2022-08-03T03:26:59;4.97;;;4.47;;
3201;SDS011;34843;48.744;8.958;2022-08-03T03:29:26;6.50;;;4.80;;
3201;SDS011;34843;48.744;8.958;2022-08-03T03:31:52;5.77;;;4.70;;
3201;SDS011;34843;48.744;8.958;2022-08-03T03:34:18;6.03;;;5.37;;
3201;SDS011;34843;48.744;8.958;2022-08-03T03:36:44;7.33;;;4.40;;
3201;SDS011;34843;48.744;8.958;2022-08-03T03:39:10;5.23;;;4.73;;
3201;SDS011;34843;48.744;8.958;2022-08-03T03:41:36;5.33;;;4.83;;
3201;SDS011;34843;48.744;8.958;2022-08-03T03:44:03;4.83;;;4.40;;
3201;SDS011;34843;48.744;8.958;2022-08-03T03:46:29;6.37;;;5.60;;
3201;SDS011;34843;48.744;8.958;2022-08-03T03:48:55;11.00;;;7.97;;
3201;SDS011;34843;48.744;8.958;2022-08-03T03:51:21;22.40;;;11.97;;
3201;SDS011;34843;48.744;8.958;2022-08-03T03:53:53;48.67;;;20.13;;
3201;SDS011;34843;48.744;8.958;2022-08-03T03:56:20;19.23;;;9.03;;
3201;SDS011;34843;48.744;8.958;2022-08-03T03:58:45;13.33;;;6.53;;
3201;SDS011;34843;48.744;8.958;2022-08-03T04:01:11;9.60;;;5.47;;
3201;SDS011;34843;48.744;8.958;2022-08-03T04:03:37;5.70;;;5.10;;
3201;SDS011;34843;48.744;8.958;2022-08-03T04:06:03;5.80;;;5.20;;
3201;SDS011;34843;48.744;8.958;2022-08-03T04:08:47;5.23;;;4.67;;
3201;SDS011;34843;48.744;8.958;2022-08-03T04:11:38;5.00;;;4.60;;
3201;SDS011;34843;48.744;8.958;2022-08-03T04:16:44;6.10;;;5.53;;
3201;SDS011;34843;48.744;8.958;2022-08-03T04:19:14;9.33;;;6.17;;
3201;SDS011;34843;48.744;8.958;2022-08-03T04:21:55;7.07;;;6.03;;
3201;SDS011;34843;48.744;8.958;2022-08-03T04:24:25;5.40;;;4.90;;
3201;SDS011;34843;48.744;8.958;2022-08-03T04:27:07;8.73;;;6.10;;
3201;SDS011;34843;48.744;8.958;2022-08-03T04:29:36;5.50;;;5.00;;
3201;SDS011;34843;48.744;8.958;2022-08-03T04:32:06;6.10;;;5.50;;
3201;SDS011;34843;48.744;8.958;2022-08-03T04:34:33;5.20;;;4.70;;
3201;SDS011;34843;48.744;8.958;2022-08-03T04:37:00;6.77;;;5.67;;
3201;SDS011;34843;48.744;8.958;2022-08-03T04:39:29;7.60;;;4.87;;
3201;SDS011;34843;48.744;8.958;2022-08-03T04:42:01;5.40;;;4.90;;
3201;SDS011;34843;48.744;8.958;2022-08-03T04:44:29;9.13;;;5.17;;
3201;SDS011;34843;48.744;8.958;2022-08-03T04:46:55;5.10;;;4.20;;
3201;SDS011;34843;48.744;8.958;2022-08-03T04:49:22;4.20;;;3.80;;
3201;SDS011;34843;48.744;8.958;2022-08-03T04:51:49;3.70;;;3.40;;
3201;SDS011;34843;48.744;8.958;2022-08-03T04:54:15;5.73;;;3.77;;
3201;SDS011;34843;48.744;8.958;2022-08-03T04:56:41;3.90;;;3.60;;
3201;SDS011;34843;48.744;8.958;2022-08-03T04:59:10;4.90;;;4.50;;
3201;SDS011;34843;48.744;8.958;2022-08-03T05:01:36;5.90;;;4.30;;
3201;SDS011;34843;48.744;8.958;2022-08-03T05:04:03;4.40;;;4.00;;
3201;SDS011;34843;48.744;8.958;2022-08-03T05:06:29;6.27;;;3.60;;
3201;SDS011;34843;48.744;8.958;2022-08-03T05:08:54;5.03;;;4.07;;
3201;SDS011;34843;48.744;8.958;2022-08-03T05:11:20;9.63;;;4.40;;
3201;SDS011;34843;48.744;8.958;2022-08-03T05:13:45;4.37;;;3.97;;
3201;SDS011;34843;48.744;8.958;2022-08-03T05:16:11;4.20;;;3.87;;
3201;SDS011;34843;48.744;8.958;2022-08-03T05:18:37;5.27;;;3.87;;
3201;SDS011;34843;48.744;8.958;2022-08-03T05:21:03;5.73;;;4.23;;
3201;SDS011;34843;48.744;8.958;2022-08-03T05:23:29;5.57;;;5.07;;
3201;SDS011;34843;48.744;8.958;2022-08-03T05:25:55;6.63;;;4.13;;
3201;SDS011;34843;48.744;8.958;2022-08-03T05:28:21;9.73;;;5.37;;
3201;SDS011;34843;48.744;8.958;2022-08-03T05:30:46;7.20;;;4.10;;
3201;SDS011;34843;48.744;8.958;2022-08-03T05:33:12;5.13;;;4.47;;
3201;SDS011;34843;48.744;8.958;2022-08-03T05:35:38;5.37;;;4.87;;
3201;SDS011;34843;48.744;8.958;2022-08-03T05:38:04;10.47;;;4.50;;
3201;SDS011;34843;48.744;8.958;2022-08-03T05:40:30;21.73;;;4.77;;
3201;SDS011;34843;48.744;8.958;2022-08-03T05:42:56;10.50;;;4.20;;
3201;SDS011;34843;48.744;8.958;2022-08-03T05:45:21;6.33;;;4.10;;
3201;SDS011;34843;48.744;8.958;2022-08-03T05:47:48;4.27;;;3.90;;
3201;SDS011;34843;48.744;8.958;2022-08-03T05:50:15;6.10;;;4.30;;
3201;SDS011;34843;48.744;8.958;2022-08-03T05:52:41;6.43;;;4.10;;
3201;SDS011;34843;48.744;8.958;2022-08-03T05:55:07;4.50;;;4.10;;
3201;SDS011;34843;48.744;8.958;2022-08-03T05:57:33;5.87;;;4.07;;
3201;SDS011;34843;48.744;8.958;2022-08-03T06:00:00;5.20;;;3.37;;
3201;SDS011;34843;48.744;8.958;2022-08-03T06:02:27;7.77;;;5.67;;
3201;SDS011;34843;48.744;8.958;2022-08-03T06:04:54;5.83;;;4.03;;
3201;SDS011;34843;48.744;8.958;2022-08-03T06:07:19;9.53;;;4.60;;
3201;SDS011;34843;48.744;8.958;2022-08-03T06:09:45;4.80;;;4.50;;
3201;SDS011;34843;48.744;8.958;2022-08-03T06:12:10;4.53;;;4.13;;
3201;SDS011;34843;48.744;8.958;2022-08-03T06:14:36;5.25;;;4.18;;
3201;SDS011;34843;48.744;8.958;2022-08-03T06:17:01;4.10;;;3.70;;
3201;SDS011;34843;48.744;8.958;2022-08-03T06:19:27;4.20;;;3.80;;
3201;SDS011;34843;48.744;8.958;2022-08-03T06:21:52;3.80;;;3.50;;
3201;SDS011;34843;48.744;8.958;2022-08-03T06:24:18;7.63;;;3.90;;
3201;SDS011;34843;48.744;8.958;2022-08-03T06:26:44;3.87;;;3.57;;
3201;SDS011;34843;48.744;8.958;2022-08-03T06:29:10;4.10;;;3.80;;
3201;SDS011;34843;48.744;8.958;2022-08-03T06:31:35;3.67;;;3.37;;
3201;SDS011;34843;48.744;8.958;2022-08-03T06:34:04;5.10;;;3.80;;
3201;SDS011;34843;48.744;8.958;2022-08-03T06:36:30;5.55;;;3.97;;
3201;SDS011;34843;48.744;8.958;2022-08-03T06:38:56;5.73;;;3.90;;
3201;SDS011;34843;48.744;8.958;2022-08-03T06:41:23;4.40;;;4.07;;
3201;SDS011;34843;48.744;8.958;2022-08-03T06:43:49;4.30;;;3.60;;
3201;SDS011;34843;48.744;8.958;2022-08-03T06:46:14;5.90;;;3.30;;
3201;SDS011;34843;48.744;8.958;2022-08-03T06:48:40;4.00;;;3.60;;
3201;SDS011;34843;48.744;8.958;2022-08-03T06:51:06;2.97;;;2.70;;
3201;SDS011;34843;48.744;8.958;2022-08-03T06:53:31;3.23;;;2.70;;
3201;SDS011;34843;48.744;8.958;2022-08-03T06:55:57;4.03;;;3.13;;
3201;SDS011;34843;48.744;8.958;2022-08-03T06:58:22;3.10;;;2.90;;
3201;SDS011;34843;48.744;8.958;2022-08-03T07:00:48;4.63;;;2.73;;
3201;SDS011;34843;48.744;8.958;2022-08-03T07:03:14;6.43;;;2.80;;
3201;SDS011;34843;48.744;8.958;2022-08-03T07:05:40;3.73;;;2.87;;
3201;SDS011;34843;48.744;8.958;2022-08-03T07:08:06;3.53;;;3.17;;
3201;SDS011;34843;48.744;8.958;2022-08-03T07:10:32;4.80;;;2.83;;
3201;SDS011;34843;48.744;8.958;2022-08-03T07:12:58;3.63;;;3.10;;
3201;SDS011;34843;48.744;8.958;2022-08-03T07:15:24;5.10;;;3.10;;
3201;SDS011;34843;48.744;8.958;2022-08-03T07:17:49;3.10;;;2.83;;
3201;SDS011;34843;48.744;8.958;2022-08-03T07:20:15;3.33;;;3.13;;
3201;SDS011;34843;48.744;8.958;2022-08-03T07:22:42;3.00;;;2.77;;
3201;SDS011;34843;48.744;8.958;2022-08-03T07:25:08;2.90;;;2.70;;
3201;SDS011;34843;48.744;8.958;2022-08-03T07:27:34;3.00;;;2.80;;
3201;SDS011;34843;48.744;8.958;2022-08-03T07:30:00;5.90;;;2.83;;
3201;SDS011;34843;48.744;8.958;2022-08-03T07:32:26;3.57;;;2.50;;
3201;SDS011;34843;48.744;8.958;2022-08-03T07:34:55;3.50;;;3.03;;
3201;SDS011;34843;48.744;8.958;2022-08-03T07:37:20;3.83;;;3.30;;
3201;SDS011;34843;48.744;8.958;2022-08-03T07:39:46;3.50;;;2.67;;
3201;SDS011;34843;48.744;8.958;2022-08-03T07:42:12;3.83;;;2.30;;
3201;SDS011;34843;48.744;8.958;2022-08-03T07:44:37;2.43;;;2.23;;
3201;SDS011;34843;48.744;8.958;2022-08-03T07:47:03;2.60;;;2.43;;
3201;SDS011;34843;48.744;8.958;2022-08-03T07:49:29;3.00;;;2.67;;
3201;SDS011;34843;48.744;8.958;2022-08-03T07:51:55;4.23;;;2.43;;
3201;SDS011;34843;48.744;8.958;2022-08-03T07:54:39;5.90;;;2.63;;
3201;SDS011;34843;48.744;8.958;2022-08-03T07:57:04;2.73;;;2.53;;
3201;SDS011;34843;48.744;8.958;2022-08-03T07:59:30;2.80;;;2.60;;
3201;SDS011;34843;48.744;8.958;2022-08-03T08:01:56;4.77;;;2.80;;
3201;SDS011;34843;48.744;8.958;2022-08-03T08:04:21;5.57;;;2.20;;
3201;SDS011;34843;48.744;8.958;2022-08-03T08:06:47;4.20;;;2.33;;
3201;SDS011;34843;48.744;8.958;2022-08-03T08:09:12;2.17;;;2.07;;
3201;SDS011;34843;48.744;8.958;2022-08-03T08:11:38;4.10;;;2.33;;
3201;SDS011;34843;48.744;8.958;2022-08-03T08:14:04;2.53;;;2.33;;
3201;SDS011;34843;48.744;8.958;2022-08-03T08:16:31;2.30;;;2.10;;
3201;SDS011;34843;48.744;8.958;2022-08-03T08:18:56;4.80;;;2.03;;
3201;SDS011;34843;48.744;8.958;2022-08-03T08:21:22;1.83;;;1.73;;
3201;SDS011;34843;48.744;8.958;2022-08-03T08:23:48;2.50;;;2.10;;
3201;SDS011;34843;48.744;8.958;2022-08-03T08:26:13;2.40;;;2.20;;
3201;SDS011;34843;48.744;8.958;2022-08-03T08:28:39;2.40;;;2.20;;
3201;SDS011;34843;48.744;8.958;2022-08-03T08:31:04;1.80;;;1.67;;
3201;SDS011;34843;48.744;8.958;2022-08-03T08:33:30;5.00;;;1.90;;
3201;SDS011;34843;48.744;8.958;2022-08-03T08:35:56;2.67;;;2.40;;
3201;SDS011;34843;48.744;8.958;2022-08-03T08:38:21;2.00;;;1.90;;
3201;SDS011;34843;48.744;8.958;2022-08-03T08:40:48;2.33;;;1.30;;
3201;SDS011;34843;48.744;8.958;2022-08-03T08:43:14;1.93;;;1.30;;
3201;SDS011;34843;48.744;8.958;2022-08-03T08:45:40;5.90;;;1.33;;
3201;SDS011;34843;48.744;8.958;2022-08-03T08:48:05;8.50;;;2.80;;
3201;SDS011;34843;48.744;8.958;2022-08-03T08:50:33;1.47;;;1.37;;
3201;SDS011;34843;48.744;8.958;2022-08-03T08:53:01;1.70;;;1.60;;
3201;SDS011;34843;48.744;8.958;2022-08-03T08:55:27;1.70;;;1.47;;
3201;SDS011;34843;48.744;8.958;2022-08-03T08:57:57;3.40;;;1.60;;
3201;SDS011;34843;48.744;8.958;2022-08-03T09:00:26;1.90;;;1.40;;
3201;SDS011;34843;48.744;8.958;2022-08-03T09:02:51;2.00;;;1.80;;
3201;SDS011;34843;48.744;8.958;2022-08-03T09:05:18;2.47;;;1.37;;
3201;SDS011;34843;48.744;8.958;2022-08-03T09:07:45;1.43;;;1.33;;
3201;SDS011;34843;48.744;8.958;2022-08-03T09:10:12;1.50;;;1.40;;
3201;SDS011;34843;48.744;8.958;2022-08-03T09:12:40;2.90;;;1.47;;
3201;SDS011;34843;48.744;8.958;2022-08-03T09:17:49;1.40;;;1.30;;
3201;SDS011;34843;48.744;8.958;2022-08-03T09:20:17;1.90;;;1.80;;
3201;SDS011;34843;48.744;8.958;2022-08-03T09:25:17;1.57;;;1.47;;
3201;SDS011;34843;48.744;8.958;2022-08-03T09:27:43;1.53;;;1.43;;
3201;SDS011;34843;48.744;8.958;2022-08-03T09:30:13;1.20;;;1.20;;
3201;SDS011;34843;48.744;8.958;2022-08-03T09:32:41;2.63;;;1.80;;
3201;SDS011;34843;48.744;8.958;2022-08-03T09:35:08;1.30;;;1.20;;
3201;SDS011;34843;48.744;8.958;2022-08-03T09:37:35;2.40;;;2.00;;
3201;SDS011;34843;48.744;8.958;2022-08-03T09:40:01;1.97;;;1.33;;
3201;SDS011;34843;48.744;8.958;2022-08-03T09:42:28;1.60;;;1.50;;
3201;SDS011;34843;48.744;8.958;2022-08-03T09:44:53;1.43;;;1.33;;
3201;SDS011;34843;48.744;8.958;2022-08-03T09:47:29;1.30;;;1.20;;
3201;SDS011;34843;48.744;8.958;2022-08-03T09:50:00;1.47;;;1.30;;
3201;SDS011;34843;48.744;8.958;2022-08-03T09:52:31;1.73;;;1.50;;
3201;SDS011;34843;48.744;8.958;2022-08-03T09:54:59;6.60;;;1.60;;
3201;SDS011;34843;48.744;8.958;2022-08-03T09:57:26;2.10;;;1.70;;
3201;SDS011;34843;48.744;8.958;2022-08-03T09:59:54;4.60;;;1.80;;
3201;SDS011;34843;48.744;8.958;2022-08-03T10:02:36;3.13;;;1.47;;
3201;SDS011;34843;48.744;8.958;2022-08-03T10:05:03;1.70;;;1.60;;
3201;SDS011;34843;48.744;8.958;2022-08-03T10:07:29;4.10;;;1.80;;
3201;SDS011;34843;48.744;8.958;2022-08-03T10:10:05;2.23;;;1.60;;
3201;SDS011;34843;48.744;8.958;2022-08-03T10:12:31;1.63;;;1.53;;
3201;SDS011;34843;48.744;8.958;2022-08-03T10:14:57;1.53;;;1.40;;
3201;SDS011;34843;48.744;8.958;2022-08-03T10:17:23;1.50;;;1.40;;
3201;SDS011;34843;48.744;8.958;2022-08-03T10:19:48;2.13;;;1.60;;
3201;SDS011;34843;48.744;8.958;2022-08-03T10:24:58;5.53;;;2.23;;
3201;SDS011;34843;48.744;8.958;2022-08-03T10:27:26;1.70;;;1.60;;
3201;SDS011;34843;48.744;8.958;2022-08-03T10:29:59;1.60;;;1.50;;
3201;SDS011;34843;48.744;8.958;2022-08-03T10:32:48;1.87;;;1.73;;
3201;SDS011;34843;48.744;8.958;2022-08-03T10:35:21;1.70;;;1.60;;
3201;SDS011;34843;48.744;8.958;2022-08-03T10:37:59;1.73;;;1.63;;
3201;SDS011;34843;48.744;8.958;2022-08-03T10:40:28;1.70;;;1.60;;
3201;SDS011;34843;48.744;8.958;2022-08-03T10:42:56;3.93;;;2.17;;
3201;SDS011;34843;48.744;8.958;2022-08-03T10:45:27;1.93;;;1.83;;
3201;SDS011;34843;48.744;8.958;2022-08-03T10:47:54;6.33;;;2.13;;
3201;SDS011;34843;48.744;8.958;2022-08-03T10:50:22;1.77;;;1.67;;
3201;SDS011;34843;48.744;8.958;2022-08-03T10:53:04;3.53;;;1.50;;
3201;SDS011;34843;48.744;8.958;2022-08-03T10:55:35;2.53;;;2.20;;
3201;SDS011;34843;48.744;8.958;2022-08-03T11:01:04;1.63;;;1.53;;
3201;SDS011;34843;48.744;8.958;2022-08-03T11:06:18;2.20;;;1.83;;
3201;SDS011;34843;48.744;8.958;2022-08-03T11:11:35;1.80;;;1.70;;
3201;SDS011;34843;48.744;8.958;2022-08-03T11:16:37;2.90;;;1.83;;
3201;SDS011;34843;48.744;8.958;2022-08-03T11:19:06;2.10;;;2.00;;
3201;SDS011;34843;48.744;8.958;2022-08-03T11:30:00;1.63;;;1.53;;
3201;SDS011;34843;48.744;8.958;2022-08-03T11:40:36;1.97;;;1.60;;
3201;SDS011;34843;48.744;8.958;2022-08-03T11:43:42;1.63;;;1.53;;
3201;SDS011;34843;48.744;8.958;2022-08-03T11:50:59;2.63;;;2.13;;
3201;SDS011;34843;48.744;8.958;2022-08-03T11:53:26;1.77;;;1.30;;
3201;SDS011;34843;48.744;8.958;2022-08-03T11:55:52;1.80;;;1.70;;
3201;SDS011;34843;48.744;8.958;2022-08-03T11:58:21;1.50;;;1.40;;
3201;SDS011;34843;48.744;8.958;2022-08-03T12:00:48;4.20;;;1.67;;
3201;SDS011;34843;48.744;8.958;2022-08-03T12:03:15;3.03;;;2.20;;
3201;SDS011;34843;48.744;8.958;2022-08-03T12:05:44;2.30;;;2.07;;
3201;SDS011;34843;48.744;8.958;2022-08-03T12:08:15;2.03;;;1.90;;
3201;SDS011;34843;48.744;8.958;2022-08-03T12:10:46;8.50;;;1.83;;
3201;SDS011;34843;48.744;8.958;2022-08-03T12:13:14;2.40;;;2.20;;
3201;SDS011;34843;48.744;8.958;2022-08-03T12:15:40;3.07;;;2.10;;
3201;SDS011;34843;48.744;8.958;2022-08-03T12:18:13;1.63;;;1.53;;
3201;SDS011;34843;48.744;8.958;2022-08-03T12:20:40;2.17;;;2.07;;
3201;SDS011;34843;48.744;8.958;2022-08-03T12:23:06;2.37;;;2.17;;
3201;SDS011;34843;48.744;8.958;2022-08-03T12:25:32;1.70;;;1.60;;
3201;SDS011;34843;48.744;8.958;2022-08-03T12:28:05;2.60;;;1.70;;
3201;SDS011;34843;48.744;8.958;2022-08-03T12:30:34;1.70;;;1.60;;
3201;SDS011;34843;48.744;8.958;2022-08-03T12:36:09;2.83;;;1.80;;
3201;SDS011;34843;48.744;8.958;2022-08-03T12:38:36;2.13;;;2.03;;
3201;SDS011;34843;48.744;8.958;2022-08-03T12:41:04;1.90;;;1.70;;
3201;SDS011;34843;48.744;8.958;2022-08-03T12:43:49;2.80;;;1.87;;
3201;SDS011;34843;48.744;8.958;2022-08-03T12:46:16;5.60;;;1.73;;
3201;SDS011;34843;48.744;8.958;2022-08-03T12:48:58;5.30;;;1.57;;
3201;SDS011;34843;48.744;8.958;2022-08-03T12:54:08;1.97;;;1.33;;
3201;SDS011;34843;48.744;8.958;2022-08-03T12:57:01;1.70;;;1.60;;
3201;SDS011;34843;48.744;8.958;2022-08-03T13:01:57;5.47;;;2.00;;
3201;SDS011;34843;48.744;8.958;2022-08-03T13:04:32;3.33;;;1.93;;
3201;SDS011;34843;48.744;8.958;2022-08-03T13:07:00;1.87;;;1.43;;
3201;SDS011;34843;48.744;8.958;2022-08-03T13:09:39;1.70;;;1.60;;
3201;SDS011;34843;48.744;8.958;2022-08-03T13:12:12;1.43;;;1.33;;
3201;SDS011;34843;48.744;8.958;2022-08-03T13:14:42;3.03;;;1.83;;
3201;SDS011;34843;48.744;8.958;2022-08-03T13:17:10;4.83;;;1.80;;
3201;SDS011;34843;48.744;8.958;2022-08-03T13:19:36;1.60;;;1.50;;
3201;SDS011;34843;48.744;8.958;2022-08-03T13:22:12;3.17;;;2.40;;
3201;SDS011;34843;48.744;8.958;2022-08-03T13:24:39;1.70;;;1.60;;
3201;SDS011;34843;48.744;8.958;2022-08-03T13:27:05;1.73;;;1.63;;
3201;SDS011;34843;48.744;8.958;2022-08-03T13:29:31;1.63;;;1.53;;
3201;SDS011;34843;48.744;8.958;2022-08-03T13:31:58;1.70;;;1.60;;
3201;SDS011;34843;48.744;8.958;2022-08-03T13:34:24;1.60;;;1.50;;
3201;SDS011;34843;48.744;8.958;2022-08-03T13:36:53;1.63;;;1.33;;
3201;SDS011;34843;48.744;8.958;2022-08-03T13:39:19;1.80;;;1.70;;
3201;SDS011;34843;48.744;8.958;2022-08-03T13:41:45;1.83;;;1.73;;
3201;SDS011;34843;48.744;8.958;2022-08-03T13:44:11;2.83;;;1.50;;
3201;SDS011;34843;48.744;8.958;2022-08-03T13:46:37;1.40;;;1.30;;
3201;SDS011;34843;48.744;8.958;2022-08-03T13:49:03;1.87;;;1.50;;
3201;SDS011;34843;48.744;8.958;2022-08-03T13:51:29;1.53;;;1.43;;
3201;SDS011;34843;48.744;8.958;2022-08-03T13:53:55;1.93;;;1.80;;
3201;SDS011;34843;48.744;8.958;2022-08-03T13:56:23;4.60;;;1.83;;
3201;SDS011;34843;48.744;8.958;2022-08-03T13:58:48;1.50;;;1.40;;
3201;SDS011;34843;48.744;8.958;2022-08-03T14:01:14;3.70;;;1.53;;
3201;SDS011;34843;48.744;8.958;2022-08-03T14:03:40;4.70;;;2.03;;
3201;SDS011;34843;48.744;8.958;2022-08-03T14:06:05;1.47;;;1.37;;
3201;SDS011;34843;48.744;8.958;2022-08-03T14:08:31;1.70;;;1.60;;
3201;SDS011;34843;48.744;8.958;2022-08-03T14:10:56;1.73;;;1.63;;
3201;SDS011;34843;48.744;8.958;2022-08-03T14:13:22;7.03;;;2.47;;
3201;SDS011;34843;48.744;8.958;2022-08-03T14:15:48;2.13;;;1.40;;
3201;SDS011;34843;48.744;8.958;2022-08-03T14:18:16;1.67;;;1.57;;
3201;SDS011;34843;48.744;8.958;2022-08-03T14:20:43;3.00;;;1.73;;
3201;SDS011;34843;48.744;8.958;2022-08-03T14:23:08;8.82;;;2.58;;
3201;SDS011;34843;48.744;8.958;2022-08-03T14:25:34;2.13;;;2.03;;
3201;SDS011;34843;48.744;8.958;2022-08-03T14:27:59;1.73;;;1.60;;
3201;SDS011;34843;48.744;8.958;2022-08-03T14:30:25;5.03;;;1.58;;
3201;SDS011;34843;48.744;8.958;2022-08-03T14:32:51;4.03;;;1.40;;
3201;SDS011;34843;48.744;8.958;2022-08-03T14:35:16;2.08;;;1.90;;
3201;SDS011;34843;48.744;8.958;2022-08-03T14:37:42;1.77;;;1.67;;
3201;SDS011;34843;48.744;8.958;2022-08-03T14:40:08;1.70;;;1.60;;
3201;SDS011;34843;48.744;8.958;2022-08-03T14:42:33;2.90;;;1.83;;
3201;SDS011;34843;48.744;8.958;2022-08-03T14:44:59;2.10;;;1.40;;
3201;SDS011;34843;48.744;8.958;2022-08-03T14:47:24;1.98;;;1.88;;
3201;SDS011;34843;48.744;8.958;2022-08-03T14:49:50;3.65;;;3.33;;
3201;SDS011;34843;48.744;8.958;2022-08-03T14:52:16;2.33;;;1.90;;
3201;SDS011;34843;48.744;8.958;2022-08-03T14:54:41;4.70;;;1.70;;
3201;SDS011;34843;48.744;8.958;2022-08-03T14:57:07;1.80;;;1.70;;
3201;SDS011;34843;48.744;8.958;2022-08-03T14:59:32;6.60;;;2.00;;
3201;SDS011;34843;48.744;8.958;2022-08-03T15:01:58;1.90;;;1.80;;
3201;SDS011;34843;48.744;8.958;2022-08-03T15:04:24;2.20;;;1.57;;
3201;SDS011;34843;48.744;8.958;2022-08-03T15:06:49;1.40;;;1.30;;
3201;SDS011;34843;48.744;8.958;2022-08-03T15:09:15;1.67;;;1.50;;
3201;SDS011;34843;48.744;8.958;2022-08-03T15:11:40;2.10;;;1.88;;
3201;SDS011;34843;48.744;8.958;2022-08-03T15:14:06;2.28;;;2.00;;
3201;SDS011;34843;48.744;8.958;2022-08-03T15:16:32;1.75;;;1.65;;
3201;SDS011;34843;48.744;8.958;2022-08-03T15:18:57;2.58;;;1.73;;
3201;SDS011;34843;48.744;8.958;2022-08-03T15:21:24;1.70;;;1.60;;
3201;SDS011;34843;48.744;8.958;2022-08-03T15:23:50;2.15;;;1.60;;
3201;SDS011;34843;48.744;8.958;2022-08-03T15:26:16;1.70;;;1.60;;
3201;SDS011;34843;48.744;8.958;2022-08-03T15:28:42;2.65;;;1.65;;
3201;SDS011;34843;48.744;8.958;2022-08-03T15:31:07;6.38;;;2.15;;
3201;SDS011;34843;48.744;8.958;2022-08-03T15:33:33;1.80;;;1.70;;
3201;SDS011;34843;48.744;8.958;2022-08-03T15:35:58;4.70;;;2.20;;
3201;SDS011;34843;48.744;8.958;2022-08-03T15:38:24;1.40;;;1.30;;
3201;SDS011;34843;48.744;8.958;2022-08-03T15:40:50;2.70;;;2.00;;
3201;SDS011;34843;48.744;8.958;2022-08-03T15:43:18;2.38;;;2.17;;
3201;SDS011;34843;48.744;8.958;2022-08-03T15:45:44;1.90;;;1.67;;
3201;SDS011;34843;48.744;8.958;2022-08-03T15:48:10;4.60;;;1.77;;
3201;SDS011;34843;48.744;8.958;2022-08-03T15:50:35;4.38;;;2.13;;
3201;SDS011;34843;48.744;8.958;2022-08-03T15:53:01;1.98;;;1.65;;
3201;SDS011;34843;48.744;8.958;2022-08-03T15:55:28;1.60;;;1.50;;
3201;SDS011;34843;48.744;8.958;2022-08-03T15:57:55;1.90;;;1.80;;
3201;SDS011;34843;48.744;8.958;2022-08-03T16:00:20;2.05;;;1.88;;
3201;SDS011;34843;48.744;8.958;2022-08-03T16:02:46;1.73;;;1.60;;
3201;SDS011;34843;48.744;8.958;2022-08-03T16:05:11;3.42;;;2.08;;
3201;SDS011;34843;48.744;8.958;2022-08-03T16:07:37;1.60;;;1.48;;
3201;SDS011;34843;48.744;8.958;2022-08-03T16:10:13;2.85;;;2.08;;
3201;SDS011;34843;48.744;8.958;2022-08-03T16:12:41;2.95;;;1.73;;